SBRF/REC METAR and TAF weather

Enter ICAO airport designator
Station Type Date Time Source
SBRF METAR 2020/07/11 03:00 UTC NOAA

SBRF 110300Z 21007KT 180V240 9999 FEW025 24/21 Q1015


Station Type Date Time Source
SBRF Decoded METAR 2020/07/11 03:00 UTC NOAA

Recife Aeroporto , Brazil (SBRF) 08-04S 034-51W
Jul 10, 2020 - 11:00 PM EDT / 2020.07.11 0300 UTC
Wind: from the SSW (210 degrees) at 8 MPH (7 KT) (direction variable):0
Visibility: greater than 7 mile(s):0
Sky conditions: mostly clear
Temperature: 75 F (24 C)
Dew Point: 69 F (21 C)
Relative Humidity: 83%
Pressure (altimeter): 29.97 in. Hg (1015 hPa)
ob: SBRF 110300Z 21007KT 180V240 9999 FEW025 24/21 Q1015
cycle: 3

Station Type Date Time Source
SBRF TAF 2020/07/11 06:33 UTC NOAA

TAF SBRF 110300Z 1106/1206 16010KT 9999 SCT023 TX29/1115Z TN23/1203Z
BECMG 1112/1114 4000 RA BKN010 BKN020
BECMG 1118/1120 9999 SCT023
RMK PEG

Example: see airport list